Airfield :
LOGIN :

Register | Disclaimer

   EN    FR    IT 

 










Legend :    VFR   Marginal VFR   IFR   Intensive IFR   Very Intensive IFR
Visi :
Ceiling :
>= 8 km
>= 3000ft
5 to 8 km
1000 to 3000 ft
1500m to 5 km
500 to 1000 ft
800 to 1500m
200 to 500 ft
< 800m
< 200 ft
Symbols :   Thunderstorms  Fog  Heavy snow  Heavy precipitations  Wind > 20 kt
SIGMETs :     Misc.  Thunderstorms  Icing  Turbulence  Mountain Waves  Volcanic Ashes






- Airport Elevation : 1558 ft
- IATA code : IOA


LGIO - Ioannina

CURRENT METAR :
  • 071550Z 32008KT 9999 FEW030TCU SCT035 27/16 Q1011

EXPIRED METARs :
  • 071520Z 32008KT 9999 SCT040 26/17 Q1011
  • 071450Z 33008KT 9999 SCT040 SCT080 26/17 Q1011
  • 071420Z AUTO VRB03KT //// // ////// 26/17 Q1011 RE//
  • 071350Z AUTO 22006KT 140V260 //// // ////// 25/16 Q1011 RERA
  • 071320Z AUTO 17005KT //// -RA ////// 26/15 Q1011 RE//

TAF TAF LGIO
Valid from the 07 at 15:00 until the 08 at 00:00 UTC


071400Z 0715/0724 VRB03KT 9999 FEW025 SCT080
PROB40
TEMPO 0715/0718 5000 SHRA FEW020TCU SCT025 BKN080
PROB30
TEMPO 0715/0718 4000 TSRA FEW015CB BKN025 BKN080



MET'MAP, your aeronautical weather chart ! - Copyright ORBIFLY December 2007 - Disclaimer

ORBIFLY MET'MAP TEAM :

Programming & Development : Alexandra Zaïnal
Original concept : Baudouin d'Aumeries
Technical & hardware support : Manuel Goepfert
Assistance : Marc-Olivier Méhu




SOURCES & CREDITS :

   NOAA